sensor_id;sensor_type;location;lat;lon;timestamp;temperature;humidity
37794;DHT22;23632;48.826;15.176;2023-03-14T00:02:14;8.10;67.10
37794;DHT22;23632;48.826;15.176;2023-03-14T00:04:41;8.10;68.00
37794;DHT22;23632;48.826;15.176;2023-03-14T00:07:11;8.10;67.20
37794;DHT22;23632;48.826;15.176;2023-03-14T00:09:39;8.00;67.60
37794;DHT22;23632;48.826;15.176;2023-03-14T00:12:06;8.00;67.50
37794;DHT22;23632;48.826;15.176;2023-03-14T00:14:34;7.90;67.50
37794;DHT22;23632;48.826;15.176;2023-03-14T00:17:01;7.90;67.80
37794;DHT22;23632;48.826;15.176;2023-03-14T00:19:27;7.80;67.90
37794;DHT22;23632;48.826;15.176;2023-03-14T00:21:54;7.80;67.80
37794;DHT22;23632;48.826;15.176;2023-03-14T00:24:21;7.70;67.80
37794;DHT22;23632;48.826;15.176;2023-03-14T00:26:48;7.70;67.80
37794;DHT22;23632;48.826;15.176;2023-03-14T00:29:15;7.70;67.90
37794;DHT22;23632;48.826;15.176;2023-03-14T00:31:44;7.60;67.80
37794;DHT22;23632;48.826;15.176;2023-03-14T00:34:11;7.60;68.00
37794;DHT22;23632;48.826;15.176;2023-03-14T00:36:38;7.60;68.10
37794;DHT22;23632;48.826;15.176;2023-03-14T00:39:05;7.60;68.10
37794;DHT22;23632;48.826;15.176;2023-03-14T00:41:32;7.50;68.00
37794;DHT22;23632;48.826;15.176;2023-03-14T00:43:59;7.60;68.10
37794;DHT22;23632;48.826;15.176;2023-03-14T00:46:26;7.50;68.10
37794;DHT22;23632;48.826;15.176;2023-03-14T00:48:53;7.50;68.10
37794;DHT22;23632;48.826;15.176;2023-03-14T00:51:22;7.50;68.20
37794;DHT22;23632;48.826;15.176;2023-03-14T00:53:49;7.50;68.40
37794;DHT22;23632;48.826;15.176;2023-03-14T00:56:17;7.50;68.30
37794;DHT22;23632;48.826;15.176;2023-03-14T00:58:44;7.50;68.40
37794;DHT22;23632;48.826;15.176;2023-03-14T01:01:14;7.50;68.50
37794;DHT22;23632;48.826;15.176;2023-03-14T01:03:44;7.50;68.40
37794;DHT22;23632;48.826;15.176;2023-03-14T01:06:17;7.50;68.60
37794;DHT22;23632;48.826;15.176;2023-03-14T01:08:46;7.60;69.00
37794;DHT22;23632;48.826;15.176;2023-03-14T01:11:26;7.50;69.30
37794;DHT22;23632;48.826;15.176;2023-03-14T01:13:54;7.50;69.80
37794;DHT22;23632;48.826;15.176;2023-03-14T01:16:24;7.50;70.30
37794;DHT22;23632;48.826;15.176;2023-03-14T01:18:55;7.40;70.80
37794;DHT22;23632;48.826;15.176;2023-03-14T01:23:53;7.40;70.40
37794;DHT22;23632;48.826;15.176;2023-03-14T01:26:23;7.50;71.20
37794;DHT22;23632;48.826;15.176;2023-03-14T01:28:53;7.40;71.00
37794;DHT22;23632;48.826;15.176;2023-03-14T01:31:23;7.40;71.10
37794;DHT22;23632;48.826;15.176;2023-03-14T01:33:50;7.50;71.20
37794;DHT22;23632;48.826;15.176;2023-03-14T01:36:18;7.40;71.10
37794;DHT22;23632;48.826;15.176;2023-03-14T01:38:45;7.50;71.30
37794;DHT22;23632;48.826;15.176;2023-03-14T01:41:20;7.50;71.00
37794;DHT22;23632;48.826;15.176;2023-03-14T01:43:49;7.50;70.80
37794;DHT22;23632;48.826;15.176;2023-03-14T01:46:32;7.50;70.50
37794;DHT22;23632;48.826;15.176;2023-03-14T01:49:21;7.60;70.50
37794;DHT22;23632;48.826;15.176;2023-03-14T01:52:13;7.60;70.30
37794;DHT22;23632;48.826;15.176;2023-03-14T01:54:52;7.60;70.00
37794;DHT22;23632;48.826;15.176;2023-03-14T01:57:25;7.60;69.90
37794;DHT22;23632;48.826;15.176;2023-03-14T02:00:01;7.50;69.70
37794;DHT22;23632;48.826;15.176;2023-03-14T02:02:44;7.50;69.60
37794;DHT22;23632;48.826;15.176;2023-03-14T02:05:19;7.50;69.70
37794;DHT22;23632;48.826;15.176;2023-03-14T02:07:59;7.50;69.80
37794;DHT22;23632;48.826;15.176;2023-03-14T02:10:44;7.50;69.90
37794;DHT22;23632;48.826;15.176;2023-03-14T02:13:16;7.50;70.30
37794;DHT22;23632;48.826;15.176;2023-03-14T02:16:04;7.50;70.60
37794;DHT22;23632;48.826;15.176;2023-03-14T02:19:01;7.50;70.50
37794;DHT22;23632;48.826;15.176;2023-03-14T02:22:25;7.50;70.30
37794;DHT22;23632;48.826;15.176;2023-03-14T02:27:43;7.60;70.50
37794;DHT22;23632;48.826;15.176;2023-03-14T02:30:12;7.60;70.30
37794;DHT22;23632;48.826;15.176;2023-03-14T02:32:48;7.60;70.20
37794;DHT22;23632;48.826;15.176;2023-03-14T02:35:22;7.70;70.40
37794;DHT22;23632;48.826;15.176;2023-03-14T02:40:23;7.70;70.20
37794;DHT22;23632;48.826;15.176;2023-03-14T02:42:52;7.70;70.20
37794;DHT22;23632;48.826;15.176;2023-03-14T02:45:33;7.70;70.20
37794;DHT22;23632;48.826;15.176;2023-03-14T02:48:11;7.70;70.10
37794;DHT22;23632;48.826;15.176;2023-03-14T02:50:44;7.70;70.50
37794;DHT22;23632;48.826;15.176;2023-03-14T02:53:16;7.70;70.30
37794;DHT22;23632;48.826;15.176;2023-03-14T02:55:49;7.70;70.50
37794;DHT22;23632;48.826;15.176;2023-03-14T02:58:20;7.70;70.70
37794;DHT22;23632;48.826;15.176;2023-03-14T03:00:52;7.70;71.00
37794;DHT22;23632;48.826;15.176;2023-03-14T03:03:19;7.60;71.20
37794;DHT22;23632;48.826;15.176;2023-03-14T03:05:49;7.60;71.30
37794;DHT22;23632;48.826;15.176;2023-03-14T03:08:19;7.70;71.50
37794;DHT22;23632;48.826;15.176;2023-03-14T03:10:47;7.70;71.40
37794;DHT22;23632;48.826;15.176;2023-03-14T03:13:15;7.70;71.30
37794;DHT22;23632;48.826;15.176;2023-03-14T03:15:46;7.80;71.10
37794;DHT22;23632;48.826;15.176;2023-03-14T03:18:13;7.90;70.90
37794;DHT22;23632;48.826;15.176;2023-03-14T03:20:42;7.90;70.80
37794;DHT22;23632;48.826;15.176;2023-03-14T03:23:09;7.90;70.60
37794;DHT22;23632;48.826;15.176;2023-03-14T03:25:38;7.90;70.50
37794;DHT22;23632;48.826;15.176;2023-03-14T03:28:05;7.90;70.30
37794;DHT22;23632;48.826;15.176;2023-03-14T03:30:38;7.90;70.40
37794;DHT22;23632;48.826;15.176;2023-03-14T03:33:06;7.90;70.50
37794;DHT22;23632;48.826;15.176;2023-03-14T03:35:34;7.80;70.40
37794;DHT22;23632;48.826;15.176;2023-03-14T03:38:02;7.80;70.50
37794;DHT22;23632;48.826;15.176;2023-03-14T03:40:30;7.80;70.50
37794;DHT22;23632;48.826;15.176;2023-03-14T03:42:57;7.70;70.30
37794;DHT22;23632;48.826;15.176;2023-03-14T03:45:25;7.70;71.20
37794;DHT22;23632;48.826;15.176;2023-03-14T03:47:54;7.60;70.30
37794;DHT22;23632;48.826;15.176;2023-03-14T03:50:22;7.60;70.20
37794;DHT22;23632;48.826;15.176;2023-03-14T03:52:49;7.50;70.10
37794;DHT22;23632;48.826;15.176;2023-03-14T03:55:16;7.50;70.20
37794;DHT22;23632;48.826;15.176;2023-03-14T03:57:45;7.50;71.20
37794;DHT22;23632;48.826;15.176;2023-03-14T04:00:12;7.40;71.40
37794;DHT22;23632;48.826;15.176;2023-03-14T04:02:42;7.40;71.30
37794;DHT22;23632;48.826;15.176;2023-03-14T04:05:13;7.40;71.40
37794;DHT22;23632;48.826;15.176;2023-03-14T04:07:49;7.40;71.20
37794;DHT22;23632;48.826;15.176;2023-03-14T04:10:22;7.40;71.10
37794;DHT22;23632;48.826;15.176;2023-03-14T04:13:02;7.50;71.00
37794;DHT22;23632;48.826;15.176;2023-03-14T04:15:31;7.50;70.90
37794;DHT22;23632;48.826;15.176;2023-03-14T04:18:04;7.50;71.00
37794;DHT22;23632;48.826;15.176;2023-03-14T04:20:34;7.50;70.90
37794;DHT22;23632;48.826;15.176;2023-03-14T04:23:02;7.50;71.10
37794;DHT22;23632;48.826;15.176;2023-03-14T04:25:29;7.50;70.90
37794;DHT22;23632;48.826;15.176;2023-03-14T04:27:58;7.50;71.00
37794;DHT22;23632;48.826;15.176;2023-03-14T04:30:28;7.50;71.30
37794;DHT22;23632;48.826;15.176;2023-03-14T04:33:02;7.50;71.20
37794;DHT22;23632;48.826;15.176;2023-03-14T04:35:32;7.40;71.30
37794;DHT22;23632;48.826;15.176;2023-03-14T04:38:05;7.40;71.30
37794;DHT22;23632;48.826;15.176;2023-03-14T04:40:33;7.50;71.30
37794;DHT22;23632;48.826;15.176;2023-03-14T04:43:05;7.40;71.20
37794;DHT22;23632;48.826;15.176;2023-03-14T04:45:33;7.40;71.10
37794;DHT22;23632;48.826;15.176;2023-03-14T04:48:02;7.40;71.20
37794;DHT22;23632;48.826;15.176;2023-03-14T04:50:30;7.40;71.20
37794;DHT22;23632;48.826;15.176;2023-03-14T04:52:57;7.40;71.20
37794;DHT22;23632;48.826;15.176;2023-03-14T04:55:24;7.40;71.30
37794;DHT22;23632;48.826;15.176;2023-03-14T04:57:54;7.50;71.40
37794;DHT22;23632;48.826;15.176;2023-03-14T05:00:21;7.50;71.40
37794;DHT22;23632;48.826;15.176;2023-03-14T05:03:11;7.40;71.10
37794;DHT22;23632;48.826;15.176;2023-03-14T05:06:05;7.40;71.00
37794;DHT22;23632;48.826;15.176;2023-03-14T05:08:32;7.50;71.00
37794;DHT22;23632;48.826;15.176;2023-03-14T05:11:14;7.40;71.00
37794;DHT22;23632;48.826;15.176;2023-03-14T05:13:47;7.40;71.00
37794;DHT22;23632;48.826;15.176;2023-03-14T05:16:26;7.40;71.00
37794;DHT22;23632;48.826;15.176;2023-03-14T05:19:14;7.40;71.00
37794;DHT22;23632;48.826;15.176;2023-03-14T05:21:59;7.40;71.00
37794;DHT22;23632;48.826;15.176;2023-03-14T05:24:36;7.40;71.10
37794;DHT22;23632;48.826;15.176;2023-03-14T05:27:13;7.40;71.10
37794;DHT22;23632;48.826;15.176;2023-03-14T05:30:00;7.40;71.60
37794;DHT22;23632;48.826;15.176;2023-03-14T05:32:41;7.40;71.70
37794;DHT22;23632;48.826;15.176;2023-03-14T05:35:17;7.50;72.10
37794;DHT22;23632;48.826;15.176;2023-03-14T05:37:54;7.50;72.90
37794;DHT22;23632;48.826;15.176;2023-03-14T05:40:34;7.60;74.20
37794;DHT22;23632;48.826;15.176;2023-03-14T05:43:10;7.60;73.80
37794;DHT22;23632;48.826;15.176;2023-03-14T05:46:06;7.80;74.80
37794;DHT22;23632;48.826;15.176;2023-03-14T05:48:48;7.90;74.10
37794;DHT22;23632;48.826;15.176;2023-03-14T05:51:34;8.10;73.70
37794;DHT22;23632;48.826;15.176;2023-03-14T05:54:25;8.20;73.90
37794;DHT22;23632;48.826;15.176;2023-03-14T05:57:10;8.40;74.80
37794;DHT22;23632;48.826;15.176;2023-03-14T05:59:48;8.50;74.80
37794;DHT22;23632;48.826;15.176;2023-03-14T06:02:38;8.70;75.00
37794;DHT22;23632;48.826;15.176;2023-03-14T06:05:15;8.90;75.00
37794;DHT22;23632;48.826;15.176;2023-03-14T06:07:43;9.00;74.50
37794;DHT22;23632;48.826;15.176;2023-03-14T06:10:10;9.20;74.20
37794;DHT22;23632;48.826;15.176;2023-03-14T06:12:38;9.30;74.00
37794;DHT22;23632;48.826;15.176;2023-03-14T06:15:05;9.50;73.80
37794;DHT22;23632;48.826;15.176;2023-03-14T06:17:33;9.60;73.80
37794;DHT22;23632;48.826;15.176;2023-03-14T06:20:05;9.70;73.60
37794;DHT22;23632;48.826;15.176;2023-03-14T06:22:33;9.80;73.60
37794;DHT22;23632;48.826;15.176;2023-03-14T06:25:01;9.80;73.40
37794;DHT22;23632;48.826;15.176;2023-03-14T06:27:28;10.00;72.30
37794;DHT22;23632;48.826;15.176;2023-03-14T06:29:57;10.00;72.40
37794;DHT22;23632;48.826;15.176;2023-03-14T06:32:25;10.10;72.30
37794;DHT22;23632;48.826;15.176;2023-03-14T06:34:56;10.20;72.60
37794;DHT22;23632;48.826;15.176;2023-03-14T06:37:24;10.20;72.60
37794;DHT22;23632;48.826;15.176;2023-03-14T06:39:52;10.40;72.70
37794;DHT22;23632;48.826;15.176;2023-03-14T06:42:35;10.40;72.70
37794;DHT22;23632;48.826;15.176;2023-03-14T06:45:02;10.60;72.90
37794;DHT22;23632;48.826;15.176;2023-03-14T06:47:29;10.60;72.90
37794;DHT22;23632;48.826;15.176;2023-03-14T06:49:56;10.80;73.30
37794;DHT22;23632;48.826;15.176;2023-03-14T06:52:24;10.90;73.20
37794;DHT22;23632;48.826;15.176;2023-03-14T06:54:51;10.90;73.10
37794;DHT22;23632;48.826;15.176;2023-03-14T06:57:20;11.00;73.20
37794;DHT22;23632;48.826;15.176;2023-03-14T06:59:47;11.10;73.20
37794;DHT22;23632;48.826;15.176;2023-03-14T07:02:14;11.30;73.40
37794;DHT22;23632;48.826;15.176;2023-03-14T07:04:42;11.30;73.10
37794;DHT22;23632;48.826;15.176;2023-03-14T07:07:10;11.50;73.10
37794;DHT22;23632;48.826;15.176;2023-03-14T07:09:37;11.60;73.10
37794;DHT22;23632;48.826;15.176;2023-03-14T07:12:04;11.60;72.80
37794;DHT22;23632;48.826;15.176;2023-03-14T07:14:32;11.70;72.70
37794;DHT22;23632;48.826;15.176;2023-03-14T07:16:59;11.80;72.60
37794;DHT22;23632;48.826;15.176;2023-03-14T07:19:27;11.80;72.50
37794;DHT22;23632;48.826;15.176;2023-03-14T07:21:54;11.90;72.50
37794;DHT22;23632;48.826;15.176;2023-03-14T07:24:24;12.00;72.40
37794;DHT22;23632;48.826;15.176;2023-03-14T07:26:52;12.00;72.20
37794;DHT22;23632;48.826;15.176;2023-03-14T07:29:20;12.10;72.00
37794;DHT22;23632;48.826;15.176;2023-03-14T07:31:47;12.20;72.10
37794;DHT22;23632;48.826;15.176;2023-03-14T07:34:17;12.10;71.90
37794;DHT22;23632;48.826;15.176;2023-03-14T07:36:46;12.20;71.70
37794;DHT22;23632;48.826;15.176;2023-03-14T07:39:13;12.30;71.60
37794;DHT22;23632;48.826;15.176;2023-03-14T07:41:59;12.30;71.50
37794;DHT22;23632;48.826;15.176;2023-03-14T07:44:42;12.40;71.50
37794;DHT22;23632;48.826;15.176;2023-03-14T07:47:09;12.50;71.50
37794;DHT22;23632;48.826;15.176;2023-03-14T07:49:38;12.50;71.30
37794;DHT22;23632;48.826;15.176;2023-03-14T07:52:05;12.50;71.20
37794;DHT22;23632;48.826;15.176;2023-03-14T07:54:32;12.70;71.30
37794;DHT22;23632;48.826;15.176;2023-03-14T07:56:59;12.70;71.10
37794;DHT22;23632;48.826;15.176;2023-03-14T07:59:27;12.80;71.00
37794;DHT22;23632;48.826;15.176;2023-03-14T08:01:54;12.70;70.70
37794;DHT22;23632;48.826;15.176;2023-03-14T08:04:21;12.80;70.80
37794;DHT22;23632;48.826;15.176;2023-03-14T08:06:48;12.80;70.70
37794;DHT22;23632;48.826;15.176;2023-03-14T08:09:15;12.80;70.70
37794;DHT22;23632;48.826;15.176;2023-03-14T08:11:42;12.80;70.70
37794;DHT22;23632;48.826;15.176;2023-03-14T08:14:09;12.90;70.60
37794;DHT22;23632;48.826;15.176;2023-03-14T08:16:37;12.90;70.50
37794;DHT22;23632;48.826;15.176;2023-03-14T08:19:04;13.00;70.30
37794;DHT22;23632;48.826;15.176;2023-03-14T08:21:31;13.00;70.20
37794;DHT22;23632;48.826;15.176;2023-03-14T08:23:58;13.00;70.10
37794;DHT22;23632;48.826;15.176;2023-03-14T08:26:27;13.00;70.10
37794;DHT22;23632;48.826;15.176;2023-03-14T08:28:54;13.10;70.10
37794;DHT22;23632;48.826;15.176;2023-03-14T08:31:21;13.10;70.00
37794;DHT22;23632;48.826;15.176;2023-03-14T08:33:48;13.10;69.90
37794;DHT22;23632;48.826;15.176;2023-03-14T08:36:15;13.10;69.90
37794;DHT22;23632;48.826;15.176;2023-03-14T08:38:42;13.20;69.80
37794;DHT22;23632;48.826;15.176;2023-03-14T08:41:10;13.10;69.90
37794;DHT22;23632;48.826;15.176;2023-03-14T08:43:37;13.10;69.90
37794;DHT22;23632;48.826;15.176;2023-03-14T08:46:04;13.20;70.00
37794;DHT22;23632;48.826;15.176;2023-03-14T08:48:31;13.20;69.90
37794;DHT22;23632;48.826;15.176;2023-03-14T08:51:07;13.20;69.90
37794;DHT22;23632;48.826;15.176;2023-03-14T08:53:34;13.20;69.80
37794;DHT22;23632;48.826;15.176;2023-03-14T08:56:01;13.30;69.70
37794;DHT22;23632;48.826;15.176;2023-03-14T08:58:28;13.30;69.70
37794;DHT22;23632;48.826;15.176;2023-03-14T09:00:56;13.20;69.70
37794;DHT22;23632;48.826;15.176;2023-03-14T09:03:25;13.30;69.70
37794;DHT22;23632;48.826;15.176;2023-03-14T09:05:52;13.30;69.70
37794;DHT22;23632;48.826;15.176;2023-03-14T09:08:19;13.40;69.50
37794;DHT22;23632;48.826;15.176;2023-03-14T09:10:46;13.40;69.60
37794;DHT22;23632;48.826;15.176;2023-03-14T09:13:13;13.50;69.60
37794;DHT22;23632;48.826;15.176;2023-03-14T09:15:40;13.50;69.60
37794;DHT22;23632;48.826;15.176;2023-03-14T09:18:09;13.50;69.40
37794;DHT22;23632;48.826;15.176;2023-03-14T09:20:36;13.50;69.30
37794;DHT22;23632;48.826;15.176;2023-03-14T09:23:03;13.60;70.30
37794;DHT22;23632;48.826;15.176;2023-03-14T09:25:30;13.70;69.10
37794;DHT22;23632;48.826;15.176;2023-03-14T09:27:57;13.70;69.00
37794;DHT22;23632;48.826;15.176;2023-03-14T09:30:24;13.70;69.10
37794;DHT22;23632;48.826;15.176;2023-03-14T09:32:51;13.70;68.40
37794;DHT22;23632;48.826;15.176;2023-03-14T09:35:18;13.80;67.70
37794;DHT22;23632;48.826;15.176;2023-03-14T09:37:45;13.70;67.60
37794;DHT22;23632;48.826;15.176;2023-03-14T09:40:14;13.70;67.50
37794;DHT22;23632;48.826;15.176;2023-03-14T09:42:42;13.70;67.50
37794;DHT22;23632;48.826;15.176;2023-03-14T09:45:25;13.70;67.10
37794;DHT22;23632;48.826;15.176;2023-03-14T09:47:59;13.70;66.90
37794;DHT22;23632;48.826;15.176;2023-03-14T09:50:40;13.70;66.90
37794;DHT22;23632;48.826;15.176;2023-03-14T09:53:14;13.70;67.20
37794;DHT22;23632;48.826;15.176;2023-03-14T09:55:45;13.70;67.20
37794;DHT22;23632;48.826;15.176;2023-03-14T09:58:18;13.80;67.10
37794;DHT22;23632;48.826;15.176;2023-03-14T10:00:48;13.90;67.00
37794;DHT22;23632;48.826;15.176;2023-03-14T10:03:34;13.80;67.40
37794;DHT22;23632;48.826;15.176;2023-03-14T10:06:02;13.80;67.40
37794;DHT22;23632;48.826;15.176;2023-03-14T10:08:38;13.80;67.40
37794;DHT22;23632;48.826;15.176;2023-03-14T10:11:06;13.80;67.30
37794;DHT22;23632;48.826;15.176;2023-03-14T10:13:34;13.70;67.20
37794;DHT22;23632;48.826;15.176;2023-03-14T10:16:03;13.70;66.90
37794;DHT22;23632;48.826;15.176;2023-03-14T10:18:33;13.60;67.10
37794;DHT22;23632;48.826;15.176;2023-03-14T10:21:21;13.50;67.20
37794;DHT22;23632;48.826;15.176;2023-03-14T10:23:53;13.50;67.20
37794;DHT22;23632;48.826;15.176;2023-03-14T10:26:29;13.50;67.20
37794;DHT22;23632;48.826;15.176;2023-03-14T10:29:12;13.50;66.90
37794;DHT22;23632;48.826;15.176;2023-03-14T10:32:10;13.50;66.70
37794;DHT22;23632;48.826;15.176;2023-03-14T10:35:25;13.60;66.50
37794;DHT22;23632;48.826;15.176;2023-03-14T10:38:00;13.60;66.80
37794;DHT22;23632;48.826;15.176;2023-03-14T10:40:31;13.60;66.20
37794;DHT22;23632;48.826;15.176;2023-03-14T10:42:59;13.60;66.30
37794;DHT22;23632;48.826;15.176;2023-03-14T10:45:38;13.50;66.40
37794;DHT22;23632;48.826;15.176;2023-03-14T10:48:31;13.50;66.90
37794;DHT22;23632;48.826;15.176;2023-03-14T10:54:20;13.50;66.90
37794;DHT22;23632;48.826;15.176;2023-03-14T10:56:59;13.50;66.90
37794;DHT22;23632;48.826;15.176;2023-03-14T10:59:36;13.60;66.70
37794;DHT22;23632;48.826;15.176;2023-03-14T11:02:31;13.50;66.70
37794;DHT22;23632;48.826;15.176;2023-03-14T11:08:07;13.70;66.60
37794;DHT22;23632;48.826;15.176;2023-03-14T11:10:39;13.70;66.60
37794;DHT22;23632;48.826;15.176;2023-03-14T11:19:42;13.90;66.10
37794;DHT22;23632;48.826;15.176;2023-03-14T11:25:26;13.90;66.00
37794;DHT22;23632;48.826;15.176;2023-03-14T11:30:54;14.00;65.70
37794;DHT22;23632;48.826;15.176;2023-03-14T11:33:35;14.10;65.90
37794;DHT22;23632;48.826;15.176;2023-03-14T11:36:14;14.10;66.00
37794;DHT22;23632;48.826;15.176;2023-03-14T11:38:48;14.20;65.30
37794;DHT22;23632;48.826;15.176;2023-03-14T11:41:25;14.10;65.60
37794;DHT22;23632;48.826;15.176;2023-03-14T11:43:57;14.20;66.60
37794;DHT22;23632;48.826;15.176;2023-03-14T11:46:35;14.20;65.30
37794;DHT22;23632;48.826;15.176;2023-03-14T11:49:18;14.20;65.60
37794;DHT22;23632;48.826;15.176;2023-03-14T11:51:56;14.20;65.30
37794;DHT22;23632;48.826;15.176;2023-03-14T11:54:50;14.20;65.60
37794;DHT22;23632;48.826;15.176;2023-03-14T11:57:21;14.30;65.90
37794;DHT22;23632;48.826;15.176;2023-03-14T11:59:58;14.40;65.80
37794;DHT22;23632;48.826;15.176;2023-03-14T12:02:56;14.40;65.30
37794;DHT22;23632;48.826;15.176;2023-03-14T12:08:43;14.50;65.40
37794;DHT22;23632;48.826;15.176;2023-03-14T12:11:18;14.60;65.00
37794;DHT22;23632;48.826;15.176;2023-03-14T12:13:52;14.70;65.10
37794;DHT22;23632;48.826;15.176;2023-03-14T12:18:50;14.70;64.90
37794;DHT22;23632;48.826;15.176;2023-03-14T12:21:19;14.70;64.70
37794;DHT22;23632;48.826;15.176;2023-03-14T12:23:53;14.80;64.30
37794;DHT22;23632;48.826;15.176;2023-03-14T12:26:50;14.80;64.10
37794;DHT22;23632;48.826;15.176;2023-03-14T12:29:19;14.80;63.80
37794;DHT22;23632;48.826;15.176;2023-03-14T12:32:20;14.80;64.00
37794;DHT22;23632;48.826;15.176;2023-03-14T12:34:50;14.80;64.10
37794;DHT22;23632;48.826;15.176;2023-03-14T12:40:15;14.70;64.00
37794;DHT22;23632;48.826;15.176;2023-03-14T12:42:59;14.70;64.40
37794;DHT22;23632;48.826;15.176;2023-03-14T12:45:33;14.70;64.30
37794;DHT22;23632;48.826;15.176;2023-03-14T12:48:23;14.70;64.40
37794;DHT22;23632;48.826;15.176;2023-03-14T12:50:55;14.70;64.50
37794;DHT22;23632;48.826;15.176;2023-03-14T12:59:37;14.60;64.60
37794;DHT22;23632;48.826;15.176;2023-03-14T13:04:51;14.50;64.50
37794;DHT22;23632;48.826;15.176;2023-03-14T13:15:45;14.50;64.80
37794;DHT22;23632;48.826;15.176;2023-03-14T13:24:04;14.40;64.60
37794;DHT22;23632;48.826;15.176;2023-03-14T13:26:39;14.40;64.70
37794;DHT22;23632;48.826;15.176;2023-03-14T13:29:28;14.40;64.80
37794;DHT22;23632;48.826;15.176;2023-03-14T13:32:22;14.30;64.90
37794;DHT22;23632;48.826;15.176;2023-03-14T13:34:49;14.40;64.80
37794;DHT22;23632;48.826;15.176;2023-03-14T13:37:19;14.30;64.80
37794;DHT22;23632;48.826;15.176;2023-03-14T13:39:54;14.30;65.70
37794;DHT22;23632;48.826;15.176;2023-03-14T13:42:27;14.30;64.90
37794;DHT22;23632;48.826;15.176;2023-03-14T13:44:57;14.30;64.70
37794;DHT22;23632;48.826;15.176;2023-03-14T13:47:25;14.30;64.70
37794;DHT22;23632;48.826;15.176;2023-03-14T13:49:53;14.30;64.70
37794;DHT22;23632;48.826;15.176;2023-03-14T13:52:36;14.30;64.70
37794;DHT22;23632;48.826;15.176;2023-03-14T13:55:13;14.30;64.90
37794;DHT22;23632;48.826;15.176;2023-03-14T13:57:48;14.20;64.70
37794;DHT22;23632;48.826;15.176;2023-03-14T14:02:58;14.20;64.90
37794;DHT22;23632;48.826;15.176;2023-03-14T14:05:28;14.20;64.80
37794;DHT22;23632;48.826;15.176;2023-03-14T14:07:56;14.10;64.80
37794;DHT22;23632;48.826;15.176;2023-03-14T14:10:23;14.10;64.80
37794;DHT22;23632;48.826;15.176;2023-03-14T14:12:57;14.00;64.70
37794;DHT22;23632;48.826;15.176;2023-03-14T14:15:28;14.00;64.70
37794;DHT22;23632;48.826;15.176;2023-03-14T14:18:01;14.00;64.70
37794;DHT22;23632;48.826;15.176;2023-03-14T14:20:37;13.90;64.80
37794;DHT22;23632;48.826;15.176;2023-03-14T14:23:21;13.80;64.80
37794;DHT22;23632;48.826;15.176;2023-03-14T14:25:59;13.70;65.00
37794;DHT22;23632;48.826;15.176;2023-03-14T14:28:30;13.60;65.10
37794;DHT22;23632;48.826;15.176;2023-03-14T14:36:41;13.60;65.20
37794;DHT22;23632;48.826;15.176;2023-03-14T14:39:18;13.60;65.20
37794;DHT22;23632;48.826;15.176;2023-03-14T14:41:48;13.60;65.30
37794;DHT22;23632;48.826;15.176;2023-03-14T14:44:21;13.60;65.30
37794;DHT22;23632;48.826;15.176;2023-03-14T14:46:55;13.60;65.30
37794;DHT22;23632;48.826;15.176;2023-03-14T14:49:28;13.70;65.40
37794;DHT22;23632;48.826;15.176;2023-03-14T14:52:09;13.70;65.60
37794;DHT22;23632;48.826;15.176;2023-03-14T14:54:43;13.90;65.70
37794;DHT22;23632;48.826;15.176;2023-03-14T14:57:24;14.20;65.80
37794;DHT22;23632;48.826;15.176;2023-03-14T14:59:56;14.60;65.20
37794;DHT22;23632;48.826;15.176;2023-03-14T15:02:44;15.10;65.20
37794;DHT22;23632;48.826;15.176;2023-03-14T15:05:15;15.60;64.80
37794;DHT22;23632;48.826;15.176;2023-03-14T15:07:44;16.10;64.30
37794;DHT22;23632;48.826;15.176;2023-03-14T15:10:20;16.60;62.20
37794;DHT22;23632;48.826;15.176;2023-03-14T15:12:49;16.90;62.50
37794;DHT22;23632;48.826;15.176;2023-03-14T15:15:17;17.10;61.20
37794;DHT22;23632;48.826;15.176;2023-03-14T15:17:44;17.10;61.20
37794;DHT22;23632;48.826;15.176;2023-03-14T15:20:14;17.30;61.40
37794;DHT22;23632;48.826;15.176;2023-03-14T15:22:43;17.20;61.30
37794;DHT22;23632;48.826;15.176;2023-03-14T15:25:10;17.40;61.40
37794;DHT22;23632;48.826;15.176;2023-03-14T15:27:57;17.50;61.10
37794;DHT22;23632;48.826;15.176;2023-03-14T15:30:24;17.80;61.00
37794;DHT22;23632;48.826;15.176;2023-03-14T15:32:51;18.00;60.90
37794;DHT22;23632;48.826;15.176;2023-03-14T15:35:18;18.40;60.40
37794;DHT22;23632;48.826;15.176;2023-03-14T15:37:46;18.80;59.50
37794;DHT22;23632;48.826;15.176;2023-03-14T15:40:15;19.10;58.60
37794;DHT22;23632;48.826;15.176;2023-03-14T15:42:42;19.30;57.40
37794;DHT22;23632;48.826;15.176;2023-03-14T15:45:09;19.40;57.50
37794;DHT22;23632;48.826;15.176;2023-03-14T15:47:36;19.20;57.00
37794;DHT22;23632;48.826;15.176;2023-03-14T15:50:04;19.00;56.90
37794;DHT22;23632;48.826;15.176;2023-03-14T15:52:31;18.80;57.40
37794;DHT22;23632;48.826;15.176;2023-03-14T15:54:58;18.40;57.80
37794;DHT22;23632;48.826;15.176;2023-03-14T15:57:26;18.10;58.10
37794;DHT22;23632;48.826;15.176;2023-03-14T15:59:53;17.80;58.20
37794;DHT22;23632;48.826;15.176;2023-03-14T16:02:20;17.50;58.60
37794;DHT22;23632;48.826;15.176;2023-03-14T16:04:47;17.20;58.10
37794;DHT22;23632;48.826;15.176;2023-03-14T16:07:14;16.90;58.50
37794;DHT22;23632;48.826;15.176;2023-03-14T16:09:41;16.50;58.70
37794;DHT22;23632;48.826;15.176;2023-03-14T16:12:08;16.20;59.30
37794;DHT22;23632;48.826;15.176;2023-03-14T16:14:35;15.80;60.00
37794;DHT22;23632;48.826;15.176;2023-03-14T16:17:02;15.60;60.00
37794;DHT22;23632;48.826;15.176;2023-03-14T16:19:29;15.40;59.90
37794;DHT22;23632;48.826;15.176;2023-03-14T16:21:57;15.20;60.30
37794;DHT22;23632;48.826;15.176;2023-03-14T16:24:24;15.10;60.70
37794;DHT22;23632;48.826;15.176;2023-03-14T16:26:52;15.00;60.90
37794;DHT22;23632;48.826;15.176;2023-03-14T16:29:19;14.80;61.10
37794;DHT22;23632;48.826;15.176;2023-03-14T16:31:46;14.70;61.30
37794;DHT22;23632;48.826;15.176;2023-03-14T16:34:13;14.60;61.40
37794;DHT22;23632;48.826;15.176;2023-03-14T16:36:40;14.50;61.50
37794;DHT22;23632;48.826;15.176;2023-03-14T16:39:07;14.40;61.70
37794;DHT22;23632;48.826;15.176;2023-03-14T16:41:34;14.40;61.90
37794;DHT22;23632;48.826;15.176;2023-03-14T16:44:01;14.20;62.10
37794;DHT22;23632;48.826;15.176;2023-03-14T16:46:28;14.20;62.20
37794;DHT22;23632;48.826;15.176;2023-03-14T16:48:56;14.10;62.30
37794;DHT22;23632;48.826;15.176;2023-03-14T16:51:23;14.00;62.50
37794;DHT22;23632;48.826;15.176;2023-03-14T16:53:50;13.90;62.60
37794;DHT22;23632;48.826;15.176;2023-03-14T16:56:17;13.80;62.70
37794;DHT22;23632;48.826;15.176;2023-03-14T16:58:44;13.70;62.80
37794;DHT22;23632;48.826;15.176;2023-03-14T17:01:13;13.60;63.10